<?xml version="1.0" encoding="UTF-8" standalone="no" ?>
<gpx xmlns="http://www.topografix.com/GPX/1/1" xmlns:xsi="http://www.w3.org/2001/XMLSchema-instance" xsi:schemaLocation="http://www.topografix.com/GPX/1/1 http://www.topografix.com/GPX/1/1/gpx.xsd" version="1.1" creator="VisuGPX - https://www.visugpx.com">
  <metadata>
    <name>parcours 13</name>
    <desc><![CDATA[l'entrainement continu]]></desc>
  </metadata>
  <trk>
    <name><![CDATA[ACTIVE LOG112858]]></name>
    <trkseg>
      <trkpt lat="48.38268" lon="-4.5063">
        <ele>45.231</ele>
        <time>2010-08-16T09:28:57Z</time>
      </trkpt>
      <trkpt lat="48.38268" lon="-4.50631">
        <ele>37.574</ele>
        <time>2010-08-16T09:29:02Z</time>
      </trkpt>
      <trkpt lat="48.38268" lon="-4.50632">
        <ele>41.662</ele>
        <time>2010-08-16T09:29:03Z</time>
      </trkpt>
      <trkpt lat="48.38268" lon="-4.50631">
        <ele>45.895</ele>
        <time>2010-08-16T09:29:04Z</time>
      </trkpt>
      <trkpt lat="48.38269" lon="-4.5063">
        <ele>45.039</ele>
        <time>2010-08-16T09:29:05Z</time>
      </trkpt>
      <trkpt lat="48.38268" lon="-4.50627">
        <ele>44.684</ele>
        <time>2010-08-16T09:29:18Z</time>
      </trkpt>
      <trkpt lat="48.38276" lon="-4.50635">
        <ele>45.222</ele>
        <time>2010-08-16T09:29:35Z</time>
      </trkpt>
      <trkpt lat="48.38273" lon="-4.50648">
        <ele>45.379</ele>
        <time>2010-08-16T09:29:40Z</time>
      </trkpt>
      <trkpt lat="48.38281" lon="-4.50714">
        <ele>48.272</ele>
        <time>2010-08-16T09:29:56Z</time>
      </trkpt>
      <trkpt lat="48.38282" lon="-4.50727">
        <ele>49.537</ele>
        <time>2010-08-16T09:29:59Z</time>
      </trkpt>
      <trkpt lat="48.38285" lon="-4.50786">
        <ele>52.649</ele>
        <time>2010-08-16T09:30:13Z</time>
      </trkpt>
      <trkpt lat="48.38289" lon="-4.50831">
        <ele>55.166</ele>
        <time>2010-08-16T09:30:27Z</time>
      </trkpt>
      <trkpt lat="48.38301" lon="-4.50894">
        <ele>55.495</ele>
        <time>2010-08-16T09:30:45Z</time>
      </trkpt>
      <trkpt lat="48.38301" lon="-4.50895">
        <ele>55.695</ele>
        <time>2010-08-16T09:31:09Z</time>
      </trkpt>
      <trkpt lat="48.38307" lon="-4.50907">
        <ele>55.147</ele>
        <time>2010-08-16T09:31:21Z</time>
      </trkpt>
      <trkpt lat="48.38306" lon="-4.50972">
        <ele>57.259</ele>
        <time>2010-08-16T09:31:33Z</time>
      </trkpt>
      <trkpt lat="48.38294" lon="-4.51025">
        <ele>60.362</ele>
        <time>2010-08-16T09:31:45Z</time>
      </trkpt>
      <trkpt lat="48.3828" lon="-4.51086">
        <ele>63.382</ele>
        <time>2010-08-16T09:31:58Z</time>
      </trkpt>
      <trkpt lat="48.3827" lon="-4.5116">
        <ele>66.578</ele>
        <time>2010-08-16T09:32:13Z</time>
      </trkpt>
      <trkpt lat="48.38268" lon="-4.51281">
        <ele>69.317</ele>
        <time>2010-08-16T09:32:34Z</time>
      </trkpt>
      <trkpt lat="48.38272" lon="-4.51455">
        <ele>68.459</ele>
        <time>2010-08-16T09:32:59Z</time>
      </trkpt>
      <trkpt lat="48.38276" lon="-4.5152">
        <ele>69.388</ele>
        <time>2010-08-16T09:33:08Z</time>
      </trkpt>
      <trkpt lat="48.38284" lon="-4.51648">
        <ele>71.992</ele>
        <time>2010-08-16T09:33:27Z</time>
      </trkpt>
      <trkpt lat="48.38292" lon="-4.51779">
        <ele>75.315</ele>
        <time>2010-08-16T09:33:49Z</time>
      </trkpt>
      <trkpt lat="48.38304" lon="-4.51905">
        <ele>78.573</ele>
        <time>2010-08-16T09:34:11Z</time>
      </trkpt>
      <trkpt lat="48.38304" lon="-4.51948">
        <ele>79.327</ele>
        <time>2010-08-16T09:34:18Z</time>
      </trkpt>
      <trkpt lat="48.38327" lon="-4.51987">
        <ele>81.084</ele>
        <time>2010-08-16T09:34:25Z</time>
      </trkpt>
      <trkpt lat="48.38358" lon="-4.51979">
        <ele>83.476</ele>
        <time>2010-08-16T09:34:35Z</time>
      </trkpt>
      <trkpt lat="48.38402" lon="-4.51968">
        <ele>86.208</ele>
        <time>2010-08-16T09:34:49Z</time>
      </trkpt>
      <trkpt lat="48.38402" lon="-4.51982">
        <ele>86.489</ele>
        <time>2010-08-16T09:34:53Z</time>
      </trkpt>
      <trkpt lat="48.38381" lon="-4.52098">
        <ele>88.033</ele>
        <time>2010-08-16T09:35:14Z</time>
      </trkpt>
      <trkpt lat="48.3836" lon="-4.52206">
        <ele>86.898</ele>
        <time>2010-08-16T09:35:32Z</time>
      </trkpt>
      <trkpt lat="48.38345" lon="-4.52277">
        <ele>85.921</ele>
        <time>2010-08-16T09:35:43Z</time>
      </trkpt>
      <trkpt lat="48.38341" lon="-4.52299">
        <ele>84.951</ele>
        <time>2010-08-16T09:35:46Z</time>
      </trkpt>
      <trkpt lat="48.38336" lon="-4.52322">
        <ele>83.892</ele>
        <time>2010-08-16T09:35:49Z</time>
      </trkpt>
      <trkpt lat="48.3833" lon="-4.52352">
        <ele>83.445</ele>
        <time>2010-08-16T09:35:53Z</time>
      </trkpt>
      <trkpt lat="48.38341" lon="-4.52372">
        <ele>83.184</ele>
        <time>2010-08-16T09:35:58Z</time>
      </trkpt>
      <trkpt lat="48.38349" lon="-4.52375">
        <ele>82.983</ele>
        <time>2010-08-16T09:36:00Z</time>
      </trkpt>
      <trkpt lat="48.38358" lon="-4.52397">
        <ele>84.724</ele>
        <time>2010-08-16T09:36:05Z</time>
      </trkpt>
      <trkpt lat="48.38345" lon="-4.52452">
        <ele>86.586</ele>
        <time>2010-08-16T09:36:15Z</time>
      </trkpt>
      <trkpt lat="48.3833" lon="-4.52546">
        <ele>89.163</ele>
        <time>2010-08-16T09:36:30Z</time>
      </trkpt>
      <trkpt lat="48.38328" lon="-4.52571">
        <ele>89.389</ele>
        <time>2010-08-16T09:36:34Z</time>
      </trkpt>
      <trkpt lat="48.38318" lon="-4.52674">
        <ele>91.627</ele>
        <time>2010-08-16T09:36:50Z</time>
      </trkpt>
      <trkpt lat="48.38312" lon="-4.52739">
        <ele>92.177</ele>
        <time>2010-08-16T09:37:00Z</time>
      </trkpt>
      <trkpt lat="48.3831" lon="-4.52759">
        <ele>93.026</ele>
        <time>2010-08-16T09:37:03Z</time>
      </trkpt>
      <trkpt lat="48.38309" lon="-4.52787">
        <ele>92.862</ele>
        <time>2010-08-16T09:37:07Z</time>
      </trkpt>
      <trkpt lat="48.38304" lon="-4.52961">
        <ele>94.437</ele>
        <time>2010-08-16T09:37:31Z</time>
      </trkpt>
      <trkpt lat="48.38302" lon="-4.53087">
        <ele>92.329</ele>
        <time>2010-08-16T09:37:48Z</time>
      </trkpt>
      <trkpt lat="48.38313" lon="-4.53121">
        <ele>91.584</ele>
        <time>2010-08-16T09:37:53Z</time>
      </trkpt>
      <trkpt lat="48.38323" lon="-4.53146">
        <ele>91.629</ele>
        <time>2010-08-16T09:37:58Z</time>
      </trkpt>
      <trkpt lat="48.38323" lon="-4.53332">
        <ele>91.567</ele>
        <time>2010-08-16T09:38:21Z</time>
      </trkpt>
      <trkpt lat="48.38323" lon="-4.53496">
        <ele>91.855</ele>
        <time>2010-08-16T09:38:41Z</time>
      </trkpt>
      <trkpt lat="48.38317" lon="-4.53609">
        <ele>92.653</ele>
        <time>2010-08-16T09:38:58Z</time>
      </trkpt>
      <trkpt lat="48.38317" lon="-4.53609">
        <ele>92.633</ele>
        <time>2010-08-16T09:39:16Z</time>
      </trkpt>
      <trkpt lat="48.38314" lon="-4.53634">
        <ele>91.964</ele>
        <time>2010-08-16T09:39:34Z</time>
      </trkpt>
      <trkpt lat="48.3831" lon="-4.53663">
        <ele>92.644</ele>
        <time>2010-08-16T09:39:38Z</time>
      </trkpt>
      <trkpt lat="48.38293" lon="-4.53813">
        <ele>91.493</ele>
        <time>2010-08-16T09:39:57Z</time>
      </trkpt>
      <trkpt lat="48.38293" lon="-4.53826">
        <ele>91.302</ele>
        <time>2010-08-16T09:39:59Z</time>
      </trkpt>
      <trkpt lat="48.38293" lon="-4.53826">
        <ele>91.81</ele>
        <time>2010-08-16T09:40:02Z</time>
      </trkpt>
      <trkpt lat="48.3828" lon="-4.53868">
        <ele>91.56</ele>
        <time>2010-08-16T09:40:06Z</time>
      </trkpt>
      <trkpt lat="48.3828" lon="-4.54031">
        <ele>88.841</ele>
        <time>2010-08-16T09:40:24Z</time>
      </trkpt>
      <trkpt lat="48.38274" lon="-4.54133">
        <ele>85.621</ele>
        <time>2010-08-16T09:40:35Z</time>
      </trkpt>
      <trkpt lat="48.38274" lon="-4.54143">
        <ele>85.71</ele>
        <time>2010-08-16T09:40:36Z</time>
      </trkpt>
      <trkpt lat="48.38272" lon="-4.54166">
        <ele>85.834</ele>
        <time>2010-08-16T09:40:38Z</time>
      </trkpt>
      <trkpt lat="48.38254" lon="-4.54225">
        <ele>84.862</ele>
        <time>2010-08-16T09:40:44Z</time>
      </trkpt>
      <trkpt lat="48.38213" lon="-4.54297">
        <ele>83.946</ele>
        <time>2010-08-16T09:40:53Z</time>
      </trkpt>
      <trkpt lat="48.38202" lon="-4.54336">
        <ele>83.341</ele>
        <time>2010-08-16T09:40:57Z</time>
      </trkpt>
      <trkpt lat="48.38187" lon="-4.54515">
        <ele>80.537</ele>
        <time>2010-08-16T09:41:14Z</time>
      </trkpt>
      <trkpt lat="48.38178" lon="-4.54624">
        <ele>77.827</ele>
        <time>2010-08-16T09:41:24Z</time>
      </trkpt>
      <trkpt lat="48.38157" lon="-4.54657">
        <ele>78.181</ele>
        <time>2010-08-16T09:41:28Z</time>
      </trkpt>
      <trkpt lat="48.38074" lon="-4.54801">
        <ele>76.021</ele>
        <time>2010-08-16T09:41:45Z</time>
      </trkpt>
      <trkpt lat="48.38033" lon="-4.54882">
        <ele>74.828</ele>
        <time>2010-08-16T09:41:55Z</time>
      </trkpt>
      <trkpt lat="48.37961" lon="-4.5504">
        <ele>73.77</ele>
        <time>2010-08-16T09:42:12Z</time>
      </trkpt>
      <trkpt lat="48.37916" lon="-4.55121">
        <ele>76.815</ele>
        <time>2010-08-16T09:42:24Z</time>
      </trkpt>
      <trkpt lat="48.37852" lon="-4.55247">
        <ele>78.718</ele>
        <time>2010-08-16T09:42:44Z</time>
      </trkpt>
      <trkpt lat="48.3781" lon="-4.55396">
        <ele>79.438</ele>
        <time>2010-08-16T09:43:03Z</time>
      </trkpt>
      <trkpt lat="48.37807" lon="-4.55404">
        <ele>79.597</ele>
        <time>2010-08-16T09:43:04Z</time>
      </trkpt>
      <trkpt lat="48.37785" lon="-4.55448">
        <ele>80.372</ele>
        <time>2010-08-16T09:43:10Z</time>
      </trkpt>
      <trkpt lat="48.37749" lon="-4.55596">
        <ele>80.635</ele>
        <time>2010-08-16T09:43:28Z</time>
      </trkpt>
      <trkpt lat="48.3774" lon="-4.55647">
        <ele>81.949</ele>
        <time>2010-08-16T09:43:34Z</time>
      </trkpt>
      <trkpt lat="48.37725" lon="-4.55678">
        <ele>83.007</ele>
        <time>2010-08-16T09:43:39Z</time>
      </trkpt>
      <trkpt lat="48.3771" lon="-4.55688">
        <ele>83.165</ele>
        <time>2010-08-16T09:43:42Z</time>
      </trkpt>
      <trkpt lat="48.37679" lon="-4.55733">
        <ele>81.498</ele>
        <time>2010-08-16T09:43:50Z</time>
      </trkpt>
      <trkpt lat="48.37682" lon="-4.55771">
        <ele>81.462</ele>
        <time>2010-08-16T09:43:54Z</time>
      </trkpt>
      <trkpt lat="48.37694" lon="-4.55838">
        <ele>80.552</ele>
        <time>2010-08-16T09:44:01Z</time>
      </trkpt>
      <trkpt lat="48.37697" lon="-4.55907">
        <ele>77.018</ele>
        <time>2010-08-16T09:44:10Z</time>
      </trkpt>
      <trkpt lat="48.37687" lon="-4.55969">
        <ele>76.715</ele>
        <time>2010-08-16T09:44:13Z</time>
      </trkpt>
      <trkpt lat="48.3768" lon="-4.56021">
        <ele>77.208</ele>
        <time>2010-08-16T09:44:18Z</time>
      </trkpt>
      <trkpt lat="48.37658" lon="-4.56108">
        <ele>80.679</ele>
        <time>2010-08-16T09:44:29Z</time>
      </trkpt>
      <trkpt lat="48.37655" lon="-4.56114">
        <ele>80.911</ele>
        <time>2010-08-16T09:44:30Z</time>
      </trkpt>
      <trkpt lat="48.37622" lon="-4.56263">
        <ele>83.179</ele>
        <time>2010-08-16T09:44:49Z</time>
      </trkpt>
      <trkpt lat="48.3757" lon="-4.56397">
        <ele>85.265</ele>
        <time>2010-08-16T09:45:07Z</time>
      </trkpt>
      <trkpt lat="48.37551" lon="-4.56449">
        <ele>85.805</ele>
        <time>2010-08-16T09:45:14Z</time>
      </trkpt>
      <trkpt lat="48.37508" lon="-4.56467">
        <ele>84.6</ele>
        <time>2010-08-16T09:45:21Z</time>
      </trkpt>
      <trkpt lat="48.37478" lon="-4.56459">
        <ele>84.489</ele>
        <time>2010-08-16T09:45:26Z</time>
      </trkpt>
      <trkpt lat="48.37459" lon="-4.56467">
        <ele>84.525</ele>
        <time>2010-08-16T09:45:30Z</time>
      </trkpt>
      <trkpt lat="48.3744" lon="-4.56589">
        <ele>83.527</ele>
        <time>2010-08-16T09:45:45Z</time>
      </trkpt>
      <trkpt lat="48.37417" lon="-4.56696">
        <ele>82.067</ele>
        <time>2010-08-16T09:45:56Z</time>
      </trkpt>
      <trkpt lat="48.37405" lon="-4.568">
        <ele>81.047</ele>
        <time>2010-08-16T09:46:06Z</time>
      </trkpt>
      <trkpt lat="48.37401" lon="-4.56842">
        <ele>81.972</ele>
        <time>2010-08-16T09:46:11Z</time>
      </trkpt>
      <trkpt lat="48.374" lon="-4.56879">
        <ele>81.13</ele>
        <time>2010-08-16T09:46:16Z</time>
      </trkpt>
      <trkpt lat="48.374" lon="-4.57038">
        <ele>79.906</ele>
        <time>2010-08-16T09:46:33Z</time>
      </trkpt>
      <trkpt lat="48.37394" lon="-4.57134">
        <ele>76.535</ele>
        <time>2010-08-16T09:46:42Z</time>
      </trkpt>
      <trkpt lat="48.37393" lon="-4.57146">
        <ele>76.502</ele>
        <time>2010-08-16T09:46:43Z</time>
      </trkpt>
      <trkpt lat="48.37387" lon="-4.57241">
        <ele>74.483</ele>
        <time>2010-08-16T09:46:51Z</time>
      </trkpt>
      <trkpt lat="48.37381" lon="-4.57324">
        <ele>74.859</ele>
        <time>2010-08-16T09:46:59Z</time>
      </trkpt>
      <trkpt lat="48.3738" lon="-4.57345">
        <ele>77.031</ele>
        <time>2010-08-16T09:47:02Z</time>
      </trkpt>
      <trkpt lat="48.37379" lon="-4.57366">
        <ele>78.264</ele>
        <time>2010-08-16T09:47:06Z</time>
      </trkpt>
      <trkpt lat="48.37421" lon="-4.57384">
        <ele>80.567</ele>
        <time>2010-08-16T09:47:13Z</time>
      </trkpt>
      <trkpt lat="48.37457" lon="-4.57404">
        <ele>83.569</ele>
        <time>2010-08-16T09:47:24Z</time>
      </trkpt>
      <trkpt lat="48.37507" lon="-4.57432">
        <ele>87.027</ele>
        <time>2010-08-16T09:47:38Z</time>
      </trkpt>
      <trkpt lat="48.37559" lon="-4.5746">
        <ele>88.396</ele>
        <time>2010-08-16T09:47:55Z</time>
      </trkpt>
      <trkpt lat="48.3757" lon="-4.57482">
        <ele>88.293</ele>
        <time>2010-08-16T09:48:01Z</time>
      </trkpt>
      <trkpt lat="48.37518" lon="-4.57671">
        <ele>87.239</ele>
        <time>2010-08-16T09:48:24Z</time>
      </trkpt>
      <trkpt lat="48.37465" lon="-4.57852">
        <ele>86.096</ele>
        <time>2010-08-16T09:48:46Z</time>
      </trkpt>
      <trkpt lat="48.37449" lon="-4.57955">
        <ele>86.332</ele>
        <time>2010-08-16T09:48:58Z</time>
      </trkpt>
      <trkpt lat="48.37445" lon="-4.57993">
        <ele>86.719</ele>
        <time>2010-08-16T09:49:03Z</time>
      </trkpt>
      <trkpt lat="48.37443" lon="-4.58014">
        <ele>86.892</ele>
        <time>2010-08-16T09:49:12Z</time>
      </trkpt>
      <trkpt lat="48.37439" lon="-4.58088">
        <ele>85.821</ele>
        <time>2010-08-16T09:49:18Z</time>
      </trkpt>
      <trkpt lat="48.37409" lon="-4.58278">
        <ele>84.304</ele>
        <time>2010-08-16T09:49:37Z</time>
      </trkpt>
      <trkpt lat="48.37386" lon="-4.58439">
        <ele>86.203</ele>
        <time>2010-08-16T09:49:53Z</time>
      </trkpt>
      <trkpt lat="48.37385" lon="-4.5846">
        <ele>85.257</ele>
        <time>2010-08-16T09:49:55Z</time>
      </trkpt>
      <trkpt lat="48.37363" lon="-4.58713">
        <ele>86.454</ele>
        <time>2010-08-16T09:50:21Z</time>
      </trkpt>
      <trkpt lat="48.3736" lon="-4.58731">
        <ele>87.08</ele>
        <time>2010-08-16T09:50:23Z</time>
      </trkpt>
      <trkpt lat="48.37327" lon="-4.58846">
        <ele>87.139</ele>
        <time>2010-08-16T09:50:37Z</time>
      </trkpt>
      <trkpt lat="48.37282" lon="-4.58979">
        <ele>88.216</ele>
        <time>2010-08-16T09:50:54Z</time>
      </trkpt>
      <trkpt lat="48.37237" lon="-4.59073">
        <ele>86.991</ele>
        <time>2010-08-16T09:51:06Z</time>
      </trkpt>
      <trkpt lat="48.37217" lon="-4.59108">
        <ele>86.773</ele>
        <time>2010-08-16T09:51:11Z</time>
      </trkpt>
      <trkpt lat="48.37225" lon="-4.59143">
        <ele>86.214</ele>
        <time>2010-08-16T09:51:14Z</time>
      </trkpt>
      <trkpt lat="48.37194" lon="-4.59174">
        <ele>86.136</ele>
        <time>2010-08-16T09:51:18Z</time>
      </trkpt>
      <trkpt lat="48.37165" lon="-4.5931">
        <ele>85.081</ele>
        <time>2010-08-16T09:51:32Z</time>
      </trkpt>
      <trkpt lat="48.37148" lon="-4.59443">
        <ele>84.857</ele>
        <time>2010-08-16T09:51:47Z</time>
      </trkpt>
      <trkpt lat="48.37157" lon="-4.59627">
        <ele>82.844</ele>
        <time>2010-08-16T09:52:06Z</time>
      </trkpt>
      <trkpt lat="48.37158" lon="-4.59722">
        <ele>82.713</ele>
        <time>2010-08-16T09:52:16Z</time>
      </trkpt>
      <trkpt lat="48.37143" lon="-4.5974">
        <ele>83.272</ele>
        <time>2010-08-16T09:52:21Z</time>
      </trkpt>
      <trkpt lat="48.37132" lon="-4.5973">
        <ele>83.174</ele>
        <time>2010-08-16T09:52:23Z</time>
      </trkpt>
      <trkpt lat="48.37034" lon="-4.59643">
        <ele>82.85</ele>
        <time>2010-08-16T09:52:38Z</time>
      </trkpt>
      <trkpt lat="48.36875" lon="-4.59542">
        <ele>82.806</ele>
        <time>2010-08-16T09:52:58Z</time>
      </trkpt>
      <trkpt lat="48.36784" lon="-4.5947">
        <ele>84.4</ele>
        <time>2010-08-16T09:53:10Z</time>
      </trkpt>
      <trkpt lat="48.36778" lon="-4.59462">
        <ele>84.546</ele>
        <time>2010-08-16T09:53:11Z</time>
      </trkpt>
      <trkpt lat="48.36757" lon="-4.59408">
        <ele>85.256</ele>
        <time>2010-08-16T09:53:17Z</time>
      </trkpt>
      <trkpt lat="48.36707" lon="-4.59245">
        <ele>86.676</ele>
        <time>2010-08-16T09:53:36Z</time>
      </trkpt>
      <trkpt lat="48.3669" lon="-4.59195">
        <ele>87.125</ele>
        <time>2010-08-16T09:53:42Z</time>
      </trkpt>
      <trkpt lat="48.36664" lon="-4.59188">
        <ele>86.725</ele>
        <time>2010-08-16T09:53:48Z</time>
      </trkpt>
      <trkpt lat="48.36662" lon="-4.59194">
        <ele>87.045</ele>
        <time>2010-08-16T09:53:49Z</time>
      </trkpt>
      <trkpt lat="48.3661" lon="-4.59347">
        <ele>85.511</ele>
        <time>2010-08-16T09:54:08Z</time>
      </trkpt>
      <trkpt lat="48.36546" lon="-4.59556">
        <ele>84.633</ele>
        <time>2010-08-16T09:54:31Z</time>
      </trkpt>
      <trkpt lat="48.36461" lon="-4.59795">
        <ele>82.043</ele>
        <time>2010-08-16T09:54:57Z</time>
      </trkpt>
      <trkpt lat="48.36406" lon="-4.59929">
        <ele>78.617</ele>
        <time>2010-08-16T09:55:10Z</time>
      </trkpt>
      <trkpt lat="48.36363" lon="-4.60027">
        <ele>78.376</ele>
        <time>2010-08-16T09:55:20Z</time>
      </trkpt>
      <trkpt lat="48.36317" lon="-4.6005">
        <ele>78.33</ele>
        <time>2010-08-16T09:55:28Z</time>
      </trkpt>
      <trkpt lat="48.36305" lon="-4.60046">
        <ele>78.652</ele>
        <time>2010-08-16T09:55:30Z</time>
      </trkpt>
      <trkpt lat="48.36282" lon="-4.60084">
        <ele>78.45</ele>
        <time>2010-08-16T09:55:36Z</time>
      </trkpt>
      <trkpt lat="48.36247" lon="-4.60341">
        <ele>79.536</ele>
        <time>2010-08-16T09:56:01Z</time>
      </trkpt>
      <trkpt lat="48.36212" lon="-4.60561">
        <ele>80.079</ele>
        <time>2010-08-16T09:56:25Z</time>
      </trkpt>
      <trkpt lat="48.36193" lon="-4.60749">
        <ele>81.892</ele>
        <time>2010-08-16T09:56:46Z</time>
      </trkpt>
      <trkpt lat="48.36186" lon="-4.6088">
        <ele>80.675</ele>
        <time>2010-08-16T09:57:00Z</time>
      </trkpt>
      <trkpt lat="48.36168" lon="-4.61162">
        <ele>83.45</ele>
        <time>2010-08-16T09:57:28Z</time>
      </trkpt>
      <trkpt lat="48.36165" lon="-4.61351">
        <ele>84.415</ele>
        <time>2010-08-16T09:57:47Z</time>
      </trkpt>
      <trkpt lat="48.36179" lon="-4.61628">
        <ele>82.809</ele>
        <time>2010-08-16T09:58:14Z</time>
      </trkpt>
      <trkpt lat="48.36188" lon="-4.61856">
        <ele>82.005</ele>
        <time>2010-08-16T09:58:36Z</time>
      </trkpt>
      <trkpt lat="48.3616" lon="-4.61994">
        <ele>81.661</ele>
        <time>2010-08-16T09:58:50Z</time>
      </trkpt>
      <trkpt lat="48.36074" lon="-4.62122">
        <ele>80.954</ele>
        <time>2010-08-16T09:59:07Z</time>
      </trkpt>
      <trkpt lat="48.35979" lon="-4.62275">
        <ele>79.864</ele>
        <time>2010-08-16T09:59:25Z</time>
      </trkpt>
      <trkpt lat="48.35932" lon="-4.62429">
        <ele>76.834</ele>
        <time>2010-08-16T09:59:39Z</time>
      </trkpt>
      <trkpt lat="48.35896" lon="-4.62646">
        <ele>74.186</ele>
        <time>2010-08-16T09:59:57Z</time>
      </trkpt>
      <trkpt lat="48.35877" lon="-4.62936">
        <ele>72.272</ele>
        <time>2010-08-16T10:00:22Z</time>
      </trkpt>
      <trkpt lat="48.35874" lon="-4.63212">
        <ele>71.754</ele>
        <time>2010-08-16T10:00:44Z</time>
      </trkpt>
      <trkpt lat="48.35877" lon="-4.63385">
        <ele>67.791</ele>
        <time>2010-08-16T10:00:59Z</time>
      </trkpt>
      <trkpt lat="48.35877" lon="-4.63397">
        <ele>67.606</ele>
        <time>2010-08-16T10:01:00Z</time>
      </trkpt>
      <trkpt lat="48.35877" lon="-4.6343">
        <ele>69.03</ele>
        <time>2010-08-16T10:01:04Z</time>
      </trkpt>
      <trkpt lat="48.35877" lon="-4.63546">
        <ele>65.656</ele>
        <time>2010-08-16T10:01:12Z</time>
      </trkpt>
      <trkpt lat="48.35878" lon="-4.63701">
        <ele>64.064</ele>
        <time>2010-08-16T10:01:24Z</time>
      </trkpt>
      <trkpt lat="48.35907" lon="-4.63743">
        <ele>62.259</ele>
        <time>2010-08-16T10:01:30Z</time>
      </trkpt>
      <trkpt lat="48.36082" lon="-4.63871">
        <ele>58.967</ele>
        <time>2010-08-16T10:01:52Z</time>
      </trkpt>
      <trkpt lat="48.36198" lon="-4.63924">
        <ele>59.867</ele>
        <time>2010-08-16T10:02:09Z</time>
      </trkpt>
      <trkpt lat="48.36318" lon="-4.63989">
        <ele>59.308</ele>
        <time>2010-08-16T10:02:29Z</time>
      </trkpt>
      <trkpt lat="48.36456" lon="-4.64112">
        <ele>58.559</ele>
        <time>2010-08-16T10:02:54Z</time>
      </trkpt>
      <trkpt lat="48.36578" lon="-4.64195">
        <ele>59.947</ele>
        <time>2010-08-16T10:03:15Z</time>
      </trkpt>
      <trkpt lat="48.3668" lon="-4.64233">
        <ele>61.262</ele>
        <time>2010-08-16T10:03:34Z</time>
      </trkpt>
      <trkpt lat="48.36756" lon="-4.6426">
        <ele>59.941</ele>
        <time>2010-08-16T10:03:48Z</time>
      </trkpt>
      <trkpt lat="48.3685" lon="-4.64283">
        <ele>56.759</ele>
        <time>2010-08-16T10:04:03Z</time>
      </trkpt>
      <trkpt lat="48.36857" lon="-4.64284">
        <ele>56.663</ele>
        <time>2010-08-16T10:04:04Z</time>
      </trkpt>
      <trkpt lat="48.36904" lon="-4.64287">
        <ele>53.478</ele>
        <time>2010-08-16T10:04:10Z</time>
      </trkpt>
      <trkpt lat="48.36912" lon="-4.64287">
        <ele>53.384</ele>
        <time>2010-08-16T10:04:11Z</time>
      </trkpt>
      <trkpt lat="48.36952" lon="-4.64285">
        <ele>52.412</ele>
        <time>2010-08-16T10:04:16Z</time>
      </trkpt>
      <trkpt lat="48.36963" lon="-4.64284">
        <ele>52.822</ele>
        <time>2010-08-16T10:04:19Z</time>
      </trkpt>
      <trkpt lat="48.36999" lon="-4.64295">
        <ele>50.967</ele>
        <time>2010-08-16T10:04:23Z</time>
      </trkpt>
      <trkpt lat="48.37006" lon="-4.64297">
        <ele>50.763</ele>
        <time>2010-08-16T10:04:24Z</time>
      </trkpt>
      <trkpt lat="48.37079" lon="-4.64318">
        <ele>51.442</ele>
        <time>2010-08-16T10:04:35Z</time>
      </trkpt>
      <trkpt lat="48.37104" lon="-4.64325">
        <ele>51.118</ele>
        <time>2010-08-16T10:04:38Z</time>
      </trkpt>
      <trkpt lat="48.37188" lon="-4.64368">
        <ele>48.827</ele>
        <time>2010-08-16T10:04:51Z</time>
      </trkpt>
      <trkpt lat="48.37297" lon="-4.644">
        <ele>46.501</ele>
        <time>2010-08-16T10:05:05Z</time>
      </trkpt>
      <trkpt lat="48.37304" lon="-4.644">
        <ele>46.703</ele>
        <time>2010-08-16T10:05:06Z</time>
      </trkpt>
      <trkpt lat="48.37319" lon="-4.644">
        <ele>46.37</ele>
        <time>2010-08-16T10:05:09Z</time>
      </trkpt>
      <trkpt lat="48.37341" lon="-4.64418">
        <ele>47.818</ele>
        <time>2010-08-16T10:05:13Z</time>
      </trkpt>
      <trkpt lat="48.37354" lon="-4.64431">
        <ele>49.121</ele>
        <time>2010-08-16T10:05:16Z</time>
      </trkpt>
      <trkpt lat="48.37373" lon="-4.6445">
        <ele>49.24</ele>
        <time>2010-08-16T10:05:21Z</time>
      </trkpt>
      <trkpt lat="48.37449" lon="-4.64501">
        <ele>50.501</ele>
        <time>2010-08-16T10:05:37Z</time>
      </trkpt>
      <trkpt lat="48.37443" lon="-4.64527">
        <ele>51.617</ele>
        <time>2010-08-16T10:05:42Z</time>
      </trkpt>
      <trkpt lat="48.37403" lon="-4.64629">
        <ele>54.766</ele>
        <time>2010-08-16T10:05:57Z</time>
      </trkpt>
      <trkpt lat="48.37352" lon="-4.64768">
        <ele>56.858</ele>
        <time>2010-08-16T10:06:18Z</time>
      </trkpt>
      <trkpt lat="48.37292" lon="-4.6488">
        <ele>56.74</ele>
        <time>2010-08-16T10:06:34Z</time>
      </trkpt>
      <trkpt lat="48.37281" lon="-4.64899">
        <ele>58.282</ele>
        <time>2010-08-16T10:06:37Z</time>
      </trkpt>
      <trkpt lat="48.37184" lon="-4.65073">
        <ele>60.745</ele>
        <time>2010-08-16T10:07:04Z</time>
      </trkpt>
      <trkpt lat="48.37137" lon="-4.65219">
        <ele>62.786</ele>
        <time>2010-08-16T10:07:23Z</time>
      </trkpt>
      <trkpt lat="48.3708" lon="-4.6543">
        <ele>64.074</ele>
        <time>2010-08-16T10:07:48Z</time>
      </trkpt>
      <trkpt lat="48.37029" lon="-4.65623">
        <ele>65.193</ele>
        <time>2010-08-16T10:08:11Z</time>
      </trkpt>
      <trkpt lat="48.37025" lon="-4.65638">
        <ele>65.834</ele>
        <time>2010-08-16T10:08:13Z</time>
      </trkpt>
      <trkpt lat="48.37034" lon="-4.65673">
        <ele>63.677</ele>
        <time>2010-08-16T10:08:19Z</time>
      </trkpt>
      <trkpt lat="48.37057" lon="-4.65685">
        <ele>62.295</ele>
        <time>2010-08-16T10:08:23Z</time>
      </trkpt>
      <trkpt lat="48.37095" lon="-4.65698">
        <ele>60.183</ele>
        <time>2010-08-16T10:08:29Z</time>
      </trkpt>
      <trkpt lat="48.37217" lon="-4.65708">
        <ele>55.641</ele>
        <time>2010-08-16T10:08:46Z</time>
      </trkpt>
      <trkpt lat="48.37312" lon="-4.65722">
        <ele>52.501</ele>
        <time>2010-08-16T10:08:59Z</time>
      </trkpt>
      <trkpt lat="48.37324" lon="-4.65731">
        <ele>51.841</ele>
        <time>2010-08-16T10:09:01Z</time>
      </trkpt>
      <trkpt lat="48.37396" lon="-4.65779">
        <ele>49.847</ele>
        <time>2010-08-16T10:09:12Z</time>
      </trkpt>
      <trkpt lat="48.37438" lon="-4.65813">
        <ele>51.519</ele>
        <time>2010-08-16T10:09:19Z</time>
      </trkpt>
      <trkpt lat="48.37465" lon="-4.65835">
        <ele>53.119</ele>
        <time>2010-08-16T10:09:24Z</time>
      </trkpt>
      <trkpt lat="48.37498" lon="-4.65871">
        <ele>53.884</ele>
        <time>2010-08-16T10:09:31Z</time>
      </trkpt>
      <trkpt lat="48.37536" lon="-4.65892">
        <ele>55.842</ele>
        <time>2010-08-16T10:09:39Z</time>
      </trkpt>
      <trkpt lat="48.3757" lon="-4.65929">
        <ele>57.983</ele>
        <time>2010-08-16T10:09:48Z</time>
      </trkpt>
      <trkpt lat="48.37581" lon="-4.65941">
        <ele>58.821</ele>
        <time>2010-08-16T10:09:51Z</time>
      </trkpt>
      <trkpt lat="48.37605" lon="-4.65976">
        <ele>61.995</ele>
        <time>2010-08-16T10:10:00Z</time>
      </trkpt>
      <trkpt lat="48.37627" lon="-4.66012">
        <ele>65.626</ele>
        <time>2010-08-16T10:10:11Z</time>
      </trkpt>
      <trkpt lat="48.37643" lon="-4.66044">
        <ele>68.073</ele>
        <time>2010-08-16T10:10:20Z</time>
      </trkpt>
      <trkpt lat="48.37649" lon="-4.66071">
        <ele>69.611</ele>
        <time>2010-08-16T10:10:26Z</time>
      </trkpt>
      <trkpt lat="48.37661" lon="-4.66148">
        <ele>71.682</ele>
        <time>2010-08-16T10:10:43Z</time>
      </trkpt>
      <trkpt lat="48.3768" lon="-4.66244">
        <ele>72.442</ele>
        <time>2010-08-16T10:11:02Z</time>
      </trkpt>
      <trkpt lat="48.37717" lon="-4.66352">
        <ele>73.917</ele>
        <time>2010-08-16T10:11:22Z</time>
      </trkpt>
      <trkpt lat="48.37731" lon="-4.66395">
        <ele>74.742</ele>
        <time>2010-08-16T10:11:31Z</time>
      </trkpt>
      <trkpt lat="48.37746" lon="-4.66521">
        <ele>75.062</ele>
        <time>2010-08-16T10:11:46Z</time>
      </trkpt>
      <trkpt lat="48.37733" lon="-4.6656">
        <ele>73.893</ele>
        <time>2010-08-16T10:11:51Z</time>
      </trkpt>
      <trkpt lat="48.37668" lon="-4.66676">
        <ele>75.393</ele>
        <time>2010-08-16T10:12:07Z</time>
      </trkpt>
      <trkpt lat="48.37611" lon="-4.66793">
        <ele>76.13</ele>
        <time>2010-08-16T10:12:24Z</time>
      </trkpt>
      <trkpt lat="48.37563" lon="-4.66928">
        <ele>76.57</ele>
        <time>2010-08-16T10:12:42Z</time>
      </trkpt>
      <trkpt lat="48.37512" lon="-4.67057">
        <ele>73.174</ele>
        <time>2010-08-16T10:12:57Z</time>
      </trkpt>
      <trkpt lat="48.37494" lon="-4.67148">
        <ele>71.301</ele>
        <time>2010-08-16T10:13:06Z</time>
      </trkpt>
      <trkpt lat="48.37502" lon="-4.67165">
        <ele>70.777</ele>
        <time>2010-08-16T10:13:13Z</time>
      </trkpt>
      <trkpt lat="48.37565" lon="-4.6717">
        <ele>73.493</ele>
        <time>2010-08-16T10:13:26Z</time>
      </trkpt>
      <trkpt lat="48.37615" lon="-4.67174">
        <ele>75.804</ele>
        <time>2010-08-16T10:13:36Z</time>
      </trkpt>
      <trkpt lat="48.37664" lon="-4.67173">
        <ele>77.006</ele>
        <time>2010-08-16T10:13:46Z</time>
      </trkpt>
      <trkpt lat="48.37775" lon="-4.67155">
        <ele>76.552</ele>
        <time>2010-08-16T10:14:08Z</time>
      </trkpt>
      <trkpt lat="48.37791" lon="-4.67153">
        <ele>78.523</ele>
        <time>2010-08-16T10:14:11Z</time>
      </trkpt>
      <trkpt lat="48.37896" lon="-4.67113">
        <ele>79.3</ele>
        <time>2010-08-16T10:14:32Z</time>
      </trkpt>
      <trkpt lat="48.37993" lon="-4.67074">
        <ele>81.926</ele>
        <time>2010-08-16T10:14:52Z</time>
      </trkpt>
      <trkpt lat="48.38101" lon="-4.67018">
        <ele>83.072</ele>
        <time>2010-08-16T10:15:15Z</time>
      </trkpt>
      <trkpt lat="48.38109" lon="-4.67012">
        <ele>83.922</ele>
        <time>2010-08-16T10:15:17Z</time>
      </trkpt>
      <trkpt lat="48.38138" lon="-4.67004">
        <ele>83.635</ele>
        <time>2010-08-16T10:15:23Z</time>
      </trkpt>
      <trkpt lat="48.38248" lon="-4.67043">
        <ele>85.301</ele>
        <time>2010-08-16T10:15:45Z</time>
      </trkpt>
      <trkpt lat="48.38305" lon="-4.67068">
        <ele>85.777</ele>
        <time>2010-08-16T10:15:56Z</time>
      </trkpt>
      <trkpt lat="48.38423" lon="-4.67121">
        <ele>86.822</ele>
        <time>2010-08-16T10:16:19Z</time>
      </trkpt>
      <trkpt lat="48.38475" lon="-4.67144">
        <ele>85.012</ele>
        <time>2010-08-16T10:16:29Z</time>
      </trkpt>
      <trkpt lat="48.38524" lon="-4.6721">
        <ele>84.609</ele>
        <time>2010-08-16T10:16:41Z</time>
      </trkpt>
      <trkpt lat="48.38542" lon="-4.67241">
        <ele>86.09</ele>
        <time>2010-08-16T10:16:47Z</time>
      </trkpt>
      <trkpt lat="48.38527" lon="-4.67266">
        <ele>86.325</ele>
        <time>2010-08-16T10:16:54Z</time>
      </trkpt>
      <trkpt lat="48.38434" lon="-4.67349">
        <ele>84.523</ele>
        <time>2010-08-16T10:17:10Z</time>
      </trkpt>
      <trkpt lat="48.38298" lon="-4.67463">
        <ele>82.312</ele>
        <time>2010-08-16T10:17:30Z</time>
      </trkpt>
      <trkpt lat="48.38099" lon="-4.67614">
        <ele>79.284</ele>
        <time>2010-08-16T10:17:57Z</time>
      </trkpt>
      <trkpt lat="48.37941" lon="-4.6775">
        <ele>78.558</ele>
        <time>2010-08-16T10:18:20Z</time>
      </trkpt>
      <trkpt lat="48.37829" lon="-4.67819">
        <ele>78.335</ele>
        <time>2010-08-16T10:18:37Z</time>
      </trkpt>
      <trkpt lat="48.37752" lon="-4.67847">
        <ele>76.078</ele>
        <time>2010-08-16T10:18:47Z</time>
      </trkpt>
      <trkpt lat="48.37605" lon="-4.67905">
        <ele>73.048</ele>
        <time>2010-08-16T10:19:05Z</time>
      </trkpt>
      <trkpt lat="48.37464" lon="-4.67982">
        <ele>70.108</ele>
        <time>2010-08-16T10:19:22Z</time>
      </trkpt>
      <trkpt lat="48.37319" lon="-4.68107">
        <ele>68.205</ele>
        <time>2010-08-16T10:19:41Z</time>
      </trkpt>
      <trkpt lat="48.37184" lon="-4.68291">
        <ele>65.124</ele>
        <time>2010-08-16T10:20:02Z</time>
      </trkpt>
      <trkpt lat="48.37081" lon="-4.68441">
        <ele>61.804</ele>
        <time>2010-08-16T10:20:18Z</time>
      </trkpt>
      <trkpt lat="48.37067" lon="-4.6846">
        <ele>60.924</ele>
        <time>2010-08-16T10:20:20Z</time>
      </trkpt>
      <trkpt lat="48.3696" lon="-4.68617">
        <ele>59.569</ele>
        <time>2010-08-16T10:20:37Z</time>
      </trkpt>
      <trkpt lat="48.36838" lon="-4.68808">
        <ele>58.618</ele>
        <time>2010-08-16T10:20:58Z</time>
      </trkpt>
      <trkpt lat="48.36715" lon="-4.69041">
        <ele>56.421</ele>
        <time>2010-08-16T10:21:22Z</time>
      </trkpt>
      <trkpt lat="48.36622" lon="-4.69253">
        <ele>56.239</ele>
        <time>2010-08-16T10:21:45Z</time>
      </trkpt>
      <trkpt lat="48.36556" lon="-4.69406">
        <ele>55.28</ele>
        <time>2010-08-16T10:22:04Z</time>
      </trkpt>
      <trkpt lat="48.36499" lon="-4.69524">
        <ele>55.242</ele>
        <time>2010-08-16T10:22:19Z</time>
      </trkpt>
      <trkpt lat="48.36484" lon="-4.69528">
        <ele>55.503</ele>
        <time>2010-08-16T10:22:23Z</time>
      </trkpt>
      <trkpt lat="48.36478" lon="-4.69528">
        <ele>55.668</ele>
        <time>2010-08-16T10:22:25Z</time>
      </trkpt>
      <trkpt lat="48.36478" lon="-4.69528">
        <ele>55.907</ele>
        <time>2010-08-16T10:22:46Z</time>
      </trkpt>
      <trkpt lat="48.36477" lon="-4.69528">
        <ele>55.941</ele>
        <time>2010-08-16T10:22:48Z</time>
      </trkpt>
      <trkpt lat="48.36463" lon="-4.69601">
        <ele>54.879</ele>
        <time>2010-08-16T10:22:58Z</time>
      </trkpt>
      <trkpt lat="48.36441" lon="-4.6968">
        <ele>54.044</ele>
        <time>2010-08-16T10:23:11Z</time>
      </trkpt>
      <trkpt lat="48.36379" lon="-4.69806">
        <ele>51.771</ele>
        <time>2010-08-16T10:23:32Z</time>
      </trkpt>
      <trkpt lat="48.36293" lon="-4.69975">
        <ele>48.468</ele>
        <time>2010-08-16T10:23:51Z</time>
      </trkpt>
      <trkpt lat="48.36288" lon="-4.69985">
        <ele>48.273</ele>
        <time>2010-08-16T10:23:52Z</time>
      </trkpt>
      <trkpt lat="48.3618" lon="-4.70219">
        <ele>45.257</ele>
        <time>2010-08-16T10:24:14Z</time>
      </trkpt>
      <trkpt lat="48.36116" lon="-4.70386">
        <ele>46.644</ele>
        <time>2010-08-16T10:24:30Z</time>
      </trkpt>
      <trkpt lat="48.36036" lon="-4.7052">
        <ele>46.55</ele>
        <time>2010-08-16T10:24:46Z</time>
      </trkpt>
      <trkpt lat="48.35866" lon="-4.7072">
        <ele>43.121</ele>
        <time>2010-08-16T10:25:12Z</time>
      </trkpt>
      <trkpt lat="48.3574" lon="-4.70916">
        <ele>44.052</ele>
        <time>2010-08-16T10:25:34Z</time>
      </trkpt>
      <trkpt lat="48.35598" lon="-4.71146">
        <ele>44.161</ele>
        <time>2010-08-16T10:26:01Z</time>
      </trkpt>
      <trkpt lat="48.35477" lon="-4.71356">
        <ele>45.101</ele>
        <time>2010-08-16T10:26:27Z</time>
      </trkpt>
      <trkpt lat="48.35387" lon="-4.71567">
        <ele>46.368</ele>
        <time>2010-08-16T10:26:52Z</time>
      </trkpt>
      <trkpt lat="48.35326" lon="-4.71791">
        <ele>44.971</ele>
        <time>2010-08-16T10:27:16Z</time>
      </trkpt>
      <trkpt lat="48.35323" lon="-4.71807">
        <ele>43.24</ele>
        <time>2010-08-16T10:27:19Z</time>
      </trkpt>
      <trkpt lat="48.35318" lon="-4.71849">
        <ele>45.185</ele>
        <time>2010-08-16T10:27:23Z</time>
      </trkpt>
      <trkpt lat="48.35307" lon="-4.71842">
        <ele>45.649</ele>
        <time>2010-08-16T10:27:25Z</time>
      </trkpt>
      <trkpt lat="48.35293" lon="-4.71832">
        <ele>45.612</ele>
        <time>2010-08-16T10:27:27Z</time>
      </trkpt>
      <trkpt lat="48.35187" lon="-4.71863">
        <ele>45.143</ele>
        <time>2010-08-16T10:27:43Z</time>
      </trkpt>
      <trkpt lat="48.3504" lon="-4.71907">
        <ele>43.488</ele>
        <time>2010-08-16T10:28:02Z</time>
      </trkpt>
      <trkpt lat="48.34877" lon="-4.71962">
        <ele>43.757</ele>
        <time>2010-08-16T10:28:23Z</time>
      </trkpt>
      <trkpt lat="48.34864" lon="-4.71971">
        <ele>44.452</ele>
        <time>2010-08-16T10:28:25Z</time>
      </trkpt>
      <trkpt lat="48.34843" lon="-4.71983">
        <ele>45.719</ele>
        <time>2010-08-16T10:28:31Z</time>
      </trkpt>
      <trkpt lat="48.34814" lon="-4.72">
        <ele>46.762</ele>
        <time>2010-08-16T10:28:33Z</time>
      </trkpt>
      <trkpt lat="48.34788" lon="-4.72014">
        <ele>44.517</ele>
        <time>2010-08-16T10:28:37Z</time>
      </trkpt>
      <trkpt lat="48.34718" lon="-4.72017">
        <ele>42.676</ele>
        <time>2010-08-16T10:28:47Z</time>
      </trkpt>
      <trkpt lat="48.34666" lon="-4.72003">
        <ele>40.116</ele>
        <time>2010-08-16T10:28:54Z</time>
      </trkpt>
      <trkpt lat="48.34632" lon="-4.71985">
        <ele>37.736</ele>
        <time>2010-08-16T10:28:58Z</time>
      </trkpt>
      <trkpt lat="48.34606" lon="-4.71969">
        <ele>35.813</ele>
        <time>2010-08-16T10:29:01Z</time>
      </trkpt>
      <trkpt lat="48.34499" lon="-4.71903">
        <ele>36.694</ele>
        <time>2010-08-16T10:29:14Z</time>
      </trkpt>
      <trkpt lat="48.34468" lon="-4.71884">
        <ele>38.727</ele>
        <time>2010-08-16T10:29:19Z</time>
      </trkpt>
      <trkpt lat="48.3444" lon="-4.71903">
        <ele>39.185</ele>
        <time>2010-08-16T10:29:25Z</time>
      </trkpt>
      <trkpt lat="48.34435" lon="-4.71917">
        <ele>40.35</ele>
        <time>2010-08-16T10:29:27Z</time>
      </trkpt>
      <trkpt lat="48.34406" lon="-4.72">
        <ele>44.042</ele>
        <time>2010-08-16T10:29:40Z</time>
      </trkpt>
      <trkpt lat="48.34391" lon="-4.72044">
        <ele>45.448</ele>
        <time>2010-08-16T10:29:47Z</time>
      </trkpt>
      <trkpt lat="48.34354" lon="-4.72108">
        <ele>46.456</ele>
        <time>2010-08-16T10:29:58Z</time>
      </trkpt>
      <trkpt lat="48.34245" lon="-4.72235">
        <ele>48.925</ele>
        <time>2010-08-16T10:30:24Z</time>
      </trkpt>
      <trkpt lat="48.34138" lon="-4.72358">
        <ele>51.374</ele>
        <time>2010-08-16T10:30:47Z</time>
      </trkpt>
      <trkpt lat="48.3409" lon="-4.72415">
        <ele>53.936</ele>
        <time>2010-08-16T10:30:59Z</time>
      </trkpt>
      <trkpt lat="48.34007" lon="-4.72508">
        <ele>56.972</ele>
        <time>2010-08-16T10:31:19Z</time>
      </trkpt>
      <trkpt lat="48.3398" lon="-4.72537">
        <ele>54.505</ele>
        <time>2010-08-16T10:31:28Z</time>
      </trkpt>
      <trkpt lat="48.33946" lon="-4.72576">
        <ele>54.256</ele>
        <time>2010-08-16T10:31:32Z</time>
      </trkpt>
      <trkpt lat="48.33929" lon="-4.72606">
        <ele>53.428</ele>
        <time>2010-08-16T10:31:36Z</time>
      </trkpt>
      <trkpt lat="48.33904" lon="-4.72781">
        <ele>50.988</ele>
        <time>2010-08-16T10:31:54Z</time>
      </trkpt>
      <trkpt lat="48.33903" lon="-4.72786">
        <ele>49.618</ele>
        <time>2010-08-16T10:31:56Z</time>
      </trkpt>
      <trkpt lat="48.3389" lon="-4.72856">
        <ele>48.262</ele>
        <time>2010-08-16T10:32:01Z</time>
      </trkpt>
      <trkpt lat="48.33873" lon="-4.73052">
        <ele>44.537</ele>
        <time>2010-08-16T10:32:18Z</time>
      </trkpt>
      <trkpt lat="48.33873" lon="-4.73077">
        <ele>43.546</ele>
        <time>2010-08-16T10:32:20Z</time>
      </trkpt>
      <trkpt lat="48.33876" lon="-4.73156">
        <ele>40.457</ele>
        <time>2010-08-16T10:32:26Z</time>
      </trkpt>
      <trkpt lat="48.33876" lon="-4.73169">
        <ele>41.086</ele>
        <time>2010-08-16T10:32:27Z</time>
      </trkpt>
      <trkpt lat="48.33888" lon="-4.73421">
        <ele>42.254</ele>
        <time>2010-08-16T10:32:48Z</time>
      </trkpt>
      <trkpt lat="48.33899" lon="-4.73683">
        <ele>44.018</ele>
        <time>2010-08-16T10:33:14Z</time>
      </trkpt>
      <trkpt lat="48.33907" lon="-4.73862">
        <ele>47.277</ele>
        <time>2010-08-16T10:33:34Z</time>
      </trkpt>
      <trkpt lat="48.33911" lon="-4.73957">
        <ele>50.318</ele>
        <time>2010-08-16T10:33:46Z</time>
      </trkpt>
      <trkpt lat="48.33899" lon="-4.74127">
        <ele>53.609</ele>
        <time>2010-08-16T10:34:08Z</time>
      </trkpt>
      <trkpt lat="48.33864" lon="-4.74301">
        <ele>51.094</ele>
        <time>2010-08-16T10:34:27Z</time>
      </trkpt>
      <trkpt lat="48.33855" lon="-4.74343">
        <ele>49.156</ele>
        <time>2010-08-16T10:34:31Z</time>
      </trkpt>
      <trkpt lat="48.33821" lon="-4.74511">
        <ele>46.201</ele>
        <time>2010-08-16T10:34:46Z</time>
      </trkpt>
      <trkpt lat="48.33802" lon="-4.74643">
        <ele>42.938</ele>
        <time>2010-08-16T10:34:56Z</time>
      </trkpt>
      <trkpt lat="48.33794" lon="-4.74698">
        <ele>41.481</ele>
        <time>2010-08-16T10:35:00Z</time>
      </trkpt>
      <trkpt lat="48.33776" lon="-4.74874">
        <ele>39.307</ele>
        <time>2010-08-16T10:35:13Z</time>
      </trkpt>
      <trkpt lat="48.33729" lon="-4.75085">
        <ele>38.365</ele>
        <time>2010-08-16T10:35:29Z</time>
      </trkpt>
      <trkpt lat="48.33672" lon="-4.7532">
        <ele>36.777</ele>
        <time>2010-08-16T10:35:48Z</time>
      </trkpt>
      <trkpt lat="48.33641" lon="-4.75553">
        <ele>36.685</ele>
        <time>2010-08-16T10:36:07Z</time>
      </trkpt>
      <trkpt lat="48.33562" lon="-4.7579">
        <ele>34.951</ele>
        <time>2010-08-16T10:36:27Z</time>
      </trkpt>
      <trkpt lat="48.33534" lon="-4.7587">
        <ele>37.186</ele>
        <time>2010-08-16T10:36:34Z</time>
      </trkpt>
      <trkpt lat="48.33462" lon="-4.76083">
        <ele>35.972</ele>
        <time>2010-08-16T10:36:55Z</time>
      </trkpt>
      <trkpt lat="48.33403" lon="-4.7625">
        <ele>32.968</ele>
        <time>2010-08-16T10:37:11Z</time>
      </trkpt>
      <trkpt lat="48.33365" lon="-4.76353">
        <ele>31.738</ele>
        <time>2010-08-16T10:37:21Z</time>
      </trkpt>
      <trkpt lat="48.33307" lon="-4.7653">
        <ele>30.202</ele>
        <time>2010-08-16T10:37:37Z</time>
      </trkpt>
      <trkpt lat="48.33298" lon="-4.76564">
        <ele>31.523</ele>
        <time>2010-08-16T10:37:40Z</time>
      </trkpt>
      <trkpt lat="48.33233" lon="-4.76798">
        <ele>28.645</ele>
        <time>2010-08-16T10:38:01Z</time>
      </trkpt>
      <trkpt lat="48.33201" lon="-4.76887">
        <ele>25.883</ele>
        <time>2010-08-16T10:38:09Z</time>
      </trkpt>
      <trkpt lat="48.33185" lon="-4.76916">
        <ele>24.443</ele>
        <time>2010-08-16T10:38:12Z</time>
      </trkpt>
      <trkpt lat="48.33138" lon="-4.76975">
        <ele>21.332</ele>
        <time>2010-08-16T10:38:19Z</time>
      </trkpt>
      <trkpt lat="48.33115" lon="-4.76998">
        <ele>20.758</ele>
        <time>2010-08-16T10:38:22Z</time>
      </trkpt>
      <trkpt lat="48.33086" lon="-4.77066">
        <ele>17.768</ele>
        <time>2010-08-16T10:38:28Z</time>
      </trkpt>
      <trkpt lat="48.33082" lon="-4.77092">
        <ele>17.259</ele>
        <time>2010-08-16T10:38:30Z</time>
      </trkpt>
      <trkpt lat="48.331" lon="-4.77167">
        <ele>16.527</ele>
        <time>2010-08-16T10:38:37Z</time>
      </trkpt>
      <trkpt lat="48.33132" lon="-4.77176">
        <ele>17.143</ele>
        <time>2010-08-16T10:38:41Z</time>
      </trkpt>
      <trkpt lat="48.33193" lon="-4.77163">
        <ele>18.32</ele>
        <time>2010-08-16T10:38:49Z</time>
      </trkpt>
      <trkpt lat="48.33377" lon="-4.77133">
        <ele>15.083</ele>
        <time>2010-08-16T10:39:14Z</time>
      </trkpt>
      <trkpt lat="48.33409" lon="-4.77133">
        <ele>11.768</ele>
        <time>2010-08-16T10:39:18Z</time>
      </trkpt>
      <trkpt lat="48.33417" lon="-4.77133">
        <ele>11.751</ele>
        <time>2010-08-16T10:39:19Z</time>
      </trkpt>
      <trkpt lat="48.33443" lon="-4.7713">
        <ele>11.053</ele>
        <time>2010-08-16T10:39:22Z</time>
      </trkpt>
      <trkpt lat="48.33499" lon="-4.77109">
        <ele>6.049</ele>
        <time>2010-08-16T10:39:28Z</time>
      </trkpt>
      <trkpt lat="48.33555" lon="-4.77124">
        <ele>3.759</ele>
        <time>2010-08-16T10:39:34Z</time>
      </trkpt>
      <trkpt lat="48.33565" lon="-4.7716">
        <ele>6.929</ele>
        <time>2010-08-16T10:39:37Z</time>
      </trkpt>
      <trkpt lat="48.33574" lon="-4.77217">
        <ele>10.858</ele>
        <time>2010-08-16T10:39:43Z</time>
      </trkpt>
      <trkpt lat="48.33589" lon="-4.77303">
        <ele>12.928</ele>
        <time>2010-08-16T10:39:54Z</time>
      </trkpt>
      <trkpt lat="48.33624" lon="-4.77384">
        <ele>13.986</ele>
        <time>2010-08-16T10:40:06Z</time>
      </trkpt>
      <trkpt lat="48.33639" lon="-4.77395">
        <ele>14.668</ele>
        <time>2010-08-16T10:40:09Z</time>
      </trkpt>
      <trkpt lat="48.33658" lon="-4.77405">
        <ele>15.387</ele>
        <time>2010-08-16T10:40:13Z</time>
      </trkpt>
      <trkpt lat="48.33678" lon="-4.77408">
        <ele>15.402</ele>
        <time>2010-08-16T10:40:17Z</time>
      </trkpt>
      <trkpt lat="48.33794" lon="-4.77393">
        <ele>14.541</ele>
        <time>2010-08-16T10:40:38Z</time>
      </trkpt>
      <trkpt lat="48.33852" lon="-4.77343">
        <ele>16.485</ele>
        <time>2010-08-16T10:40:49Z</time>
      </trkpt>
      <trkpt lat="48.33938" lon="-4.77224">
        <ele>17.68</ele>
        <time>2010-08-16T10:41:10Z</time>
      </trkpt>
      <trkpt lat="48.34052" lon="-4.77173">
        <ele>15.74</ele>
        <time>2010-08-16T10:41:29Z</time>
      </trkpt>
      <trkpt lat="48.34189" lon="-4.77149">
        <ele>11.707</ele>
        <time>2010-08-16T10:41:49Z</time>
      </trkpt>
      <trkpt lat="48.34225" lon="-4.77129">
        <ele>10.942</ele>
        <time>2010-08-16T10:41:54Z</time>
      </trkpt>
      <trkpt lat="48.34287" lon="-4.77095">
        <ele>7.125</ele>
        <time>2010-08-16T10:42:02Z</time>
      </trkpt>
      <trkpt lat="48.34337" lon="-4.77109">
        <ele>7.33</ele>
        <time>2010-08-16T10:42:08Z</time>
      </trkpt>
      <trkpt lat="48.34423" lon="-4.77141">
        <ele>8.901</ele>
        <time>2010-08-16T10:42:21Z</time>
      </trkpt>
      <trkpt lat="48.34448" lon="-4.7713">
        <ele>9.941</ele>
        <time>2010-08-16T10:42:25Z</time>
      </trkpt>
      <trkpt lat="48.34552" lon="-4.77062">
        <ele>9.712</ele>
        <time>2010-08-16T10:42:41Z</time>
      </trkpt>
      <trkpt lat="48.34598" lon="-4.77011">
        <ele>12.838</ele>
        <time>2010-08-16T10:42:50Z</time>
      </trkpt>
      <trkpt lat="48.34602" lon="-4.77006">
        <ele>12.97</ele>
        <time>2010-08-16T10:42:51Z</time>
      </trkpt>
      <trkpt lat="48.34701" lon="-4.76897">
        <ele>13.68</ele>
        <time>2010-08-16T10:43:14Z</time>
      </trkpt>
      <trkpt lat="48.34713" lon="-4.76888">
        <ele>11.843</ele>
        <time>2010-08-16T10:43:16Z</time>
      </trkpt>
      <trkpt lat="48.34754" lon="-4.76871">
        <ele>10.802</ele>
        <time>2010-08-16T10:43:22Z</time>
      </trkpt>
      <trkpt lat="48.34787" lon="-4.76884">
        <ele>11.273</ele>
        <time>2010-08-16T10:43:27Z</time>
      </trkpt>
      <trkpt lat="48.34808" lon="-4.76903">
        <ele>12.929</ele>
        <time>2010-08-16T10:43:31Z</time>
      </trkpt>
      <trkpt lat="48.34821" lon="-4.76916">
        <ele>14.529</ele>
        <time>2010-08-16T10:43:34Z</time>
      </trkpt>
      <trkpt lat="48.34857" lon="-4.76949">
        <ele>17.713</ele>
        <time>2010-08-16T10:43:43Z</time>
      </trkpt>
      <trkpt lat="48.34911" lon="-4.76999">
        <ele>21.403</ele>
        <time>2010-08-16T10:43:57Z</time>
      </trkpt>
      <trkpt lat="48.34914" lon="-4.77003">
        <ele>21.574</ele>
        <time>2010-08-16T10:43:58Z</time>
      </trkpt>
      <trkpt lat="48.34948" lon="-4.7704">
        <ele>21.904</ele>
        <time>2010-08-16T10:44:07Z</time>
      </trkpt>
      <trkpt lat="48.35003" lon="-4.77154">
        <ele>23.43</ele>
        <time>2010-08-16T10:44:27Z</time>
      </trkpt>
      <trkpt lat="48.35038" lon="-4.77244">
        <ele>20.769</ele>
        <time>2010-08-16T10:44:40Z</time>
      </trkpt>
      <trkpt lat="48.35112" lon="-4.7731">
        <ele>20.285</ele>
        <time>2010-08-16T10:44:55Z</time>
      </trkpt>
      <trkpt lat="48.352" lon="-4.77321">
        <ele>18.609</ele>
        <time>2010-08-16T10:45:09Z</time>
      </trkpt>
      <trkpt lat="48.35225" lon="-4.77331">
        <ele>17.678</ele>
        <time>2010-08-16T10:45:13Z</time>
      </trkpt>
      <trkpt lat="48.35251" lon="-4.77357">
        <ele>17.443</ele>
        <time>2010-08-16T10:45:18Z</time>
      </trkpt>
      <trkpt lat="48.3527" lon="-4.7741">
        <ele>17.096</ele>
        <time>2010-08-16T10:45:24Z</time>
      </trkpt>
      <trkpt lat="48.35272" lon="-4.77428">
        <ele>17.407</ele>
        <time>2010-08-16T10:45:26Z</time>
      </trkpt>
      <trkpt lat="48.35265" lon="-4.77504">
        <ele>20.531</ele>
        <time>2010-08-16T10:45:36Z</time>
      </trkpt>
      <trkpt lat="48.35252" lon="-4.77585">
        <ele>23.605</ele>
        <time>2010-08-16T10:45:49Z</time>
      </trkpt>
      <trkpt lat="48.35242" lon="-4.77651">
        <ele>25.676</ele>
        <time>2010-08-16T10:45:59Z</time>
      </trkpt>
      <trkpt lat="48.35246" lon="-4.77678">
        <ele>26.409</ele>
        <time>2010-08-16T10:46:03Z</time>
      </trkpt>
      <trkpt lat="48.35265" lon="-4.77724">
        <ele>28.47</ele>
        <time>2010-08-16T10:46:12Z</time>
      </trkpt>
      <trkpt lat="48.35302" lon="-4.77753">
        <ele>28.516</ele>
        <time>2010-08-16T10:46:21Z</time>
      </trkpt>
      <trkpt lat="48.35322" lon="-4.77754">
        <ele>29.709</ele>
        <time>2010-08-16T10:46:25Z</time>
      </trkpt>
      <trkpt lat="48.35369" lon="-4.77722">
        <ele>32.7</ele>
        <time>2010-08-16T10:46:36Z</time>
      </trkpt>
      <trkpt lat="48.35445" lon="-4.77615">
        <ele>33.956</ele>
        <time>2010-08-16T10:46:59Z</time>
      </trkpt>
      <trkpt lat="48.35523" lon="-4.77527">
        <ele>33.024</ele>
        <time>2010-08-16T10:47:16Z</time>
      </trkpt>
      <trkpt lat="48.35597" lon="-4.7752">
        <ele>28.855</ele>
        <time>2010-08-16T10:47:27Z</time>
      </trkpt>
      <trkpt lat="48.35605" lon="-4.77521">
        <ele>28.615</ele>
        <time>2010-08-16T10:47:28Z</time>
      </trkpt>
      <trkpt lat="48.35646" lon="-4.77523">
        <ele>24.475</ele>
        <time>2010-08-16T10:47:33Z</time>
      </trkpt>
      <trkpt lat="48.35655" lon="-4.77526">
        <ele>23.316</ele>
        <time>2010-08-16T10:47:34Z</time>
      </trkpt>
      <trkpt lat="48.35693" lon="-4.77547">
        <ele>19.232</ele>
        <time>2010-08-16T10:47:38Z</time>
      </trkpt>
      <trkpt lat="48.3571" lon="-4.77565">
        <ele>16.92</ele>
        <time>2010-08-16T10:47:40Z</time>
      </trkpt>
      <trkpt lat="48.35727" lon="-4.77581">
        <ele>17.236</ele>
        <time>2010-08-16T10:47:42Z</time>
      </trkpt>
      <trkpt lat="48.35754" lon="-4.77594">
        <ele>18.61</ele>
        <time>2010-08-16T10:47:45Z</time>
      </trkpt>
      <trkpt lat="48.35781" lon="-4.7758">
        <ele>22.035</ele>
        <time>2010-08-16T10:47:49Z</time>
      </trkpt>
      <trkpt lat="48.35787" lon="-4.77575">
        <ele>22.309</ele>
        <time>2010-08-16T10:47:50Z</time>
      </trkpt>
      <trkpt lat="48.35787" lon="-4.77575">
        <ele>23.167</ele>
        <time>2010-08-16T10:47:51Z</time>
      </trkpt>
      <trkpt lat="48.35812" lon="-4.77525">
        <ele>24.381</ele>
        <time>2010-08-16T10:47:56Z</time>
      </trkpt>
      <trkpt lat="48.35844" lon="-4.7748">
        <ele>24.345</ele>
        <time>2010-08-16T10:48:03Z</time>
      </trkpt>
      <trkpt lat="48.3586" lon="-4.77463">
        <ele>26.024</ele>
        <time>2010-08-16T10:48:07Z</time>
      </trkpt>
      <trkpt lat="48.3586" lon="-4.77433">
        <ele>25.869</ele>
        <time>2010-08-16T10:48:10Z</time>
      </trkpt>
      <trkpt lat="48.35841" lon="-4.77304">
        <ele>27.056</ele>
        <time>2010-08-16T10:48:25Z</time>
      </trkpt>
      <trkpt lat="48.35839" lon="-4.77288">
        <ele>28.062</ele>
        <time>2010-08-16T10:48:27Z</time>
      </trkpt>
      <trkpt lat="48.35834" lon="-4.77257">
        <ele>27.882</ele>
        <time>2010-08-16T10:48:33Z</time>
      </trkpt>
      <trkpt lat="48.35819" lon="-4.7722">
        <ele>28.475</ele>
        <time>2010-08-16T10:48:36Z</time>
      </trkpt>
      <trkpt lat="48.35808" lon="-4.77206">
        <ele>28.455</ele>
        <time>2010-08-16T10:48:39Z</time>
      </trkpt>
      <trkpt lat="48.35822" lon="-4.77183">
        <ele>27.827</ele>
        <time>2010-08-16T10:48:45Z</time>
      </trkpt>
      <trkpt lat="48.3586" lon="-4.7717">
        <ele>27.13</ele>
        <time>2010-08-16T10:48:52Z</time>
      </trkpt>
      <trkpt lat="48.35894" lon="-4.77159">
        <ele>26.836</ele>
        <time>2010-08-16T10:48:59Z</time>
      </trkpt>
      <trkpt lat="48.3592" lon="-4.7715">
        <ele>26.959</ele>
        <time>2010-08-16T10:49:03Z</time>
      </trkpt>
      <trkpt lat="48.35942" lon="-4.77122">
        <ele>26.468</ele>
        <time>2010-08-16T10:49:08Z</time>
      </trkpt>
      <trkpt lat="48.35953" lon="-4.77128">
        <ele>26.478</ele>
        <time>2010-08-16T10:49:10Z</time>
      </trkpt>
      <trkpt lat="48.35992" lon="-4.77135">
        <ele>25.735</ele>
        <time>2010-08-16T10:49:17Z</time>
      </trkpt>
      <trkpt lat="48.36056" lon="-4.77153">
        <ele>24.075</ele>
        <time>2010-08-16T10:49:27Z</time>
      </trkpt>
      <trkpt lat="48.36078" lon="-4.7713">
        <ele>24.488</ele>
        <time>2010-08-16T10:49:32Z</time>
      </trkpt>
      <trkpt lat="48.36083" lon="-4.7709">
        <ele>25.381</ele>
        <time>2010-08-16T10:49:38Z</time>
      </trkpt>
      <trkpt lat="48.36085" lon="-4.77011">
        <ele>23.72</ele>
        <time>2010-08-16T10:49:44Z</time>
      </trkpt>
      <trkpt lat="48.3606" lon="-4.76876">
        <ele>20.214</ele>
        <time>2010-08-16T10:49:56Z</time>
      </trkpt>
      <trkpt lat="48.36047" lon="-4.7681">
        <ele>17.047</ele>
        <time>2010-08-16T10:50:01Z</time>
      </trkpt>
      <trkpt lat="48.36042" lon="-4.76781">
        <ele>15.934</ele>
        <time>2010-08-16T10:50:03Z</time>
      </trkpt>
      <trkpt lat="48.36026" lon="-4.76693">
        <ele>13.141</ele>
        <time>2010-08-16T10:50:09Z</time>
      </trkpt>
      <trkpt lat="48.36003" lon="-4.7657">
        <ele>9.62</ele>
        <time>2010-08-16T10:50:17Z</time>
      </trkpt>
      <trkpt lat="48.35994" lon="-4.76522">
        <ele>6.461</ele>
        <time>2010-08-16T10:50:20Z</time>
      </trkpt>
      <trkpt lat="48.3598" lon="-4.76456">
        <ele>4.315</ele>
        <time>2010-08-16T10:50:24Z</time>
      </trkpt>
      <trkpt lat="48.35967" lon="-4.76399">
        <ele>0.565</ele>
        <time>2010-08-16T10:50:28Z</time>
      </trkpt>
      <trkpt lat="48.3595" lon="-4.76253">
        <ele>2.146</ele>
        <time>2010-08-16T10:50:37Z</time>
      </trkpt>
      <trkpt lat="48.3595" lon="-4.76253">
        <ele>2.22</ele>
        <time>2010-08-16T10:50:38Z</time>
      </trkpt>
      <trkpt lat="48.3594" lon="-4.76131">
        <ele>5.591</ele>
        <time>2010-08-16T10:50:46Z</time>
      </trkpt>
      <trkpt lat="48.35929" lon="-4.75986">
        <ele>3.309</ele>
        <time>2010-08-16T10:50:59Z</time>
      </trkpt>
      <trkpt lat="48.35912" lon="-4.75764">
        <ele>3.371</ele>
        <time>2010-08-16T10:51:17Z</time>
      </trkpt>
      <trkpt lat="48.35909" lon="-4.7558">
        <ele>3.832</ele>
        <time>2010-08-16T10:51:33Z</time>
      </trkpt>
      <trkpt lat="48.35918" lon="-4.75519">
        <ele>5.737</ele>
        <time>2010-08-16T10:51:39Z</time>
      </trkpt>
      <trkpt lat="48.35939" lon="-4.75338">
        <ele>2.342</ele>
        <time>2010-08-16T10:51:56Z</time>
      </trkpt>
      <trkpt lat="48.35941" lon="-4.75325">
        <ele>2.173</ele>
        <time>2010-08-16T10:51:57Z</time>
      </trkpt>
      <trkpt lat="48.3595" lon="-4.75195">
        <ele>2.447</ele>
        <time>2010-08-16T10:52:08Z</time>
      </trkpt>
      <trkpt lat="48.3595" lon="-4.75175">
        <ele>3.102</ele>
        <time>2010-08-16T10:52:10Z</time>
      </trkpt>
      <trkpt lat="48.3595" lon="-4.75116">
        <ele>4.517</ele>
        <time>2010-08-16T10:52:16Z</time>
      </trkpt>
      <trkpt lat="48.35978" lon="-4.75087">
        <ele>2.422</ele>
        <time>2010-08-16T10:52:22Z</time>
      </trkpt>
      <trkpt lat="48.36092" lon="-4.74982">
        <ele>5.006</ele>
        <time>2010-08-16T10:52:42Z</time>
      </trkpt>
      <trkpt lat="48.36101" lon="-4.74953">
        <ele>7.078</ele>
        <time>2010-08-16T10:52:48Z</time>
      </trkpt>
      <trkpt lat="48.36083" lon="-4.74899">
        <ele>9.425</ele>
        <time>2010-08-16T10:52:59Z</time>
      </trkpt>
      <trkpt lat="48.3605" lon="-4.74869">
        <ele>11.419</ele>
        <time>2010-08-16T10:53:11Z</time>
      </trkpt>
      <trkpt lat="48.36043" lon="-4.74841">
        <ele>12.882</ele>
        <time>2010-08-16T10:53:17Z</time>
      </trkpt>
      <trkpt lat="48.3605" lon="-4.74796">
        <ele>15.506</ele>
        <time>2010-08-16T10:53:30Z</time>
      </trkpt>
      <trkpt lat="48.36055" lon="-4.74794">
        <ele>16.282</ele>
        <time>2010-08-16T10:53:33Z</time>
      </trkpt>
      <trkpt lat="48.36087" lon="-4.74798">
        <ele>17.694</ele>
        <time>2010-08-16T10:53:45Z</time>
      </trkpt>
      <trkpt lat="48.36117" lon="-4.74803">
        <ele>20.278</ele>
        <time>2010-08-16T10:53:56Z</time>
      </trkpt>
      <trkpt lat="48.36177" lon="-4.74799">
        <ele>22.441</ele>
        <time>2010-08-16T10:54:10Z</time>
      </trkpt>
      <trkpt lat="48.36211" lon="-4.74794">
        <ele>24.882</ele>
        <time>2010-08-16T10:54:21Z</time>
      </trkpt>
      <trkpt lat="48.3625" lon="-4.74788">
        <ele>26.705</ele>
        <time>2010-08-16T10:54:32Z</time>
      </trkpt>
      <trkpt lat="48.36291" lon="-4.74781">
        <ele>27.147</ele>
        <time>2010-08-16T10:54:42Z</time>
      </trkpt>
      <trkpt lat="48.3635" lon="-4.74767">
        <ele>25.408</ele>
        <time>2010-08-16T10:54:52Z</time>
      </trkpt>
      <trkpt lat="48.36362" lon="-4.74759">
        <ele>24.026</ele>
        <time>2010-08-16T10:54:54Z</time>
      </trkpt>
      <trkpt lat="48.36388" lon="-4.74734">
        <ele>24.003</ele>
        <time>2010-08-16T10:54:59Z</time>
      </trkpt>
      <trkpt lat="48.36411" lon="-4.74739">
        <ele>23.212</ele>
        <time>2010-08-16T10:55:02Z</time>
      </trkpt>
      <trkpt lat="48.36436" lon="-4.74719">
        <ele>20.322</ele>
        <time>2010-08-16T10:55:06Z</time>
      </trkpt>
      <trkpt lat="48.36456" lon="-4.74698">
        <ele>18.747</ele>
        <time>2010-08-16T10:55:09Z</time>
      </trkpt>
      <trkpt lat="48.36476" lon="-4.74677">
        <ele>17.453</ele>
        <time>2010-08-16T10:55:12Z</time>
      </trkpt>
      <trkpt lat="48.36489" lon="-4.74663">
        <ele>16.609</ele>
        <time>2010-08-16T10:55:14Z</time>
      </trkpt>
      <trkpt lat="48.36522" lon="-4.7461">
        <ele>13.408</ele>
        <time>2010-08-16T10:55:19Z</time>
      </trkpt>
      <trkpt lat="48.36572" lon="-4.74558">
        <ele>10.094</ele>
        <time>2010-08-16T10:55:25Z</time>
      </trkpt>
      <trkpt lat="48.36581" lon="-4.74558">
        <ele>8.686</ele>
        <time>2010-08-16T10:55:26Z</time>
      </trkpt>
      <trkpt lat="48.36632" lon="-4.74581">
        <ele>5.887</ele>
        <time>2010-08-16T10:55:31Z</time>
      </trkpt>
      <trkpt lat="48.36654" lon="-4.74592">
        <ele>4.757</ele>
        <time>2010-08-16T10:55:33Z</time>
      </trkpt>
      <trkpt lat="48.36673" lon="-4.74602">
        <ele>3.355</ele>
        <time>2010-08-16T10:55:35Z</time>
      </trkpt>
      <trkpt lat="48.36683" lon="-4.74607">
        <ele>3.244</ele>
        <time>2010-08-16T10:55:36Z</time>
      </trkpt>
      <trkpt lat="48.36722" lon="-4.74665">
        <ele>3.212</ele>
        <time>2010-08-16T10:55:41Z</time>
      </trkpt>
      <trkpt lat="48.3675" lon="-4.7471">
        <ele>5.654</ele>
        <time>2010-08-16T10:55:46Z</time>
      </trkpt>
      <trkpt lat="48.36775" lon="-4.74723">
        <ele>8.934</ele>
        <time>2010-08-16T10:55:52Z</time>
      </trkpt>
      <trkpt lat="48.36799" lon="-4.74731">
        <ele>9.713</ele>
        <time>2010-08-16T10:55:56Z</time>
      </trkpt>
      <trkpt lat="48.36817" lon="-4.74733">
        <ele>10.952</ele>
        <time>2010-08-16T10:55:59Z</time>
      </trkpt>
      <trkpt lat="48.3683" lon="-4.74732">
        <ele>11.542</ele>
        <time>2010-08-16T10:56:01Z</time>
      </trkpt>
      <trkpt lat="48.36887" lon="-4.74709">
        <ele>14.944</ele>
        <time>2010-08-16T10:56:14Z</time>
      </trkpt>
      <trkpt lat="48.36891" lon="-4.74707">
        <ele>15.077</ele>
        <time>2010-08-16T10:56:15Z</time>
      </trkpt>
      <trkpt lat="48.36928" lon="-4.74679">
        <ele>17.128</ele>
        <time>2010-08-16T10:56:25Z</time>
      </trkpt>
      <trkpt lat="48.36952" lon="-4.74656">
        <ele>18.208</ele>
        <time>2010-08-16T10:56:32Z</time>
      </trkpt>
      <trkpt lat="48.36988" lon="-4.74622">
        <ele>19.991</ele>
        <time>2010-08-16T10:56:42Z</time>
      </trkpt>
      <trkpt lat="48.3704" lon="-4.74575">
        <ele>23.337</ele>
        <time>2010-08-16T10:56:59Z</time>
      </trkpt>
      <trkpt lat="48.37073" lon="-4.74564">
        <ele>25.469</ele>
        <time>2010-08-16T10:57:12Z</time>
      </trkpt>
      <trkpt lat="48.37096" lon="-4.74565">
        <ele>26.935</ele>
        <time>2010-08-16T10:57:21Z</time>
      </trkpt>
      <trkpt lat="48.37127" lon="-4.7457">
        <ele>28.324</ele>
        <time>2010-08-16T10:57:31Z</time>
      </trkpt>
      <trkpt lat="48.37164" lon="-4.74591">
        <ele>30.013</ele>
        <time>2010-08-16T10:57:43Z</time>
      </trkpt>
      <trkpt lat="48.37194" lon="-4.74616">
        <ele>31.031</ele>
        <time>2010-08-16T10:57:55Z</time>
      </trkpt>
      <trkpt lat="48.37259" lon="-4.74666">
        <ele>30.493</ele>
        <time>2010-08-16T10:58:09Z</time>
      </trkpt>
      <trkpt lat="48.3736" lon="-4.74721">
        <ele>32.95</ele>
        <time>2010-08-16T10:58:30Z</time>
      </trkpt>
      <trkpt lat="48.37426" lon="-4.74747">
        <ele>35.08</ele>
        <time>2010-08-16T10:58:45Z</time>
      </trkpt>
      <trkpt lat="48.37511" lon="-4.74774">
        <ele>38.9</ele>
        <time>2010-08-16T10:59:04Z</time>
      </trkpt>
      <trkpt lat="48.37516" lon="-4.74776">
        <ele>38.715</ele>
        <time>2010-08-16T10:59:05Z</time>
      </trkpt>
      <trkpt lat="48.37566" lon="-4.74787">
        <ele>35.958</ele>
        <time>2010-08-16T10:59:15Z</time>
      </trkpt>
      <trkpt lat="48.37635" lon="-4.74779">
        <ele>39.285</ele>
        <time>2010-08-16T10:59:28Z</time>
      </trkpt>
      <trkpt lat="48.37733" lon="-4.74699">
        <ele>39.124</ele>
        <time>2010-08-16T10:59:48Z</time>
      </trkpt>
      <trkpt lat="48.3788" lon="-4.74564">
        <ele>35.858</ele>
        <time>2010-08-16T11:00:15Z</time>
      </trkpt>
      <trkpt lat="48.37886" lon="-4.74559">
        <ele>35.67</ele>
        <time>2010-08-16T11:00:16Z</time>
      </trkpt>
      <trkpt lat="48.37948" lon="-4.7452">
        <ele>30.961</ele>
        <time>2010-08-16T11:00:25Z</time>
      </trkpt>
      <trkpt lat="48.37956" lon="-4.74517">
        <ele>31.696</ele>
        <time>2010-08-16T11:00:26Z</time>
      </trkpt>
      <trkpt lat="48.37986" lon="-4.74507">
        <ele>32.52</ele>
        <time>2010-08-16T11:00:30Z</time>
      </trkpt>
      <trkpt lat="48.38009" lon="-4.74485">
        <ele>34.064</ele>
        <time>2010-08-16T11:00:34Z</time>
      </trkpt>
      <trkpt lat="48.38053" lon="-4.74431">
        <ele>37.715</ele>
        <time>2010-08-16T11:00:44Z</time>
      </trkpt>
      <trkpt lat="48.38055" lon="-4.74425">
        <ele>37.944</ele>
        <time>2010-08-16T11:00:45Z</time>
      </trkpt>
      <trkpt lat="48.38092" lon="-4.7433">
        <ele>41.288</ele>
        <time>2010-08-16T11:01:00Z</time>
      </trkpt>
      <trkpt lat="48.38146" lon="-4.74267">
        <ele>44.073</ele>
        <time>2010-08-16T11:01:14Z</time>
      </trkpt>
      <trkpt lat="48.38228" lon="-4.74192">
        <ele>47.082</ele>
        <time>2010-08-16T11:01:34Z</time>
      </trkpt>
      <trkpt lat="48.38314" lon="-4.74094">
        <ele>48.384</ele>
        <time>2010-08-16T11:01:56Z</time>
      </trkpt>
      <trkpt lat="48.38409" lon="-4.74012">
        <ele>49.361</ele>
        <time>2010-08-16T11:02:16Z</time>
      </trkpt>
      <trkpt lat="48.38534" lon="-4.73958">
        <ele>51.336</ele>
        <time>2010-08-16T11:02:39Z</time>
      </trkpt>
      <trkpt lat="48.38597" lon="-4.7393">
        <ele>51.124</ele>
        <time>2010-08-16T11:02:52Z</time>
      </trkpt>
      <trkpt lat="48.38621" lon="-4.73897">
        <ele>49.331</ele>
        <time>2010-08-16T11:02:58Z</time>
      </trkpt>
      <trkpt lat="48.38639" lon="-4.73876">
        <ele>49.788</ele>
        <time>2010-08-16T11:03:02Z</time>
      </trkpt>
      <trkpt lat="48.38749" lon="-4.73817">
        <ele>48.019</ele>
        <time>2010-08-16T11:03:19Z</time>
      </trkpt>
      <trkpt lat="48.38878" lon="-4.73746">
        <ele>47.082</ele>
        <time>2010-08-16T11:03:38Z</time>
      </trkpt>
      <trkpt lat="48.3897" lon="-4.73708">
        <ele>45.238</ele>
        <time>2010-08-16T11:03:52Z</time>
      </trkpt>
      <trkpt lat="48.39027" lon="-4.73685">
        <ele>40.939</ele>
        <time>2010-08-16T11:03:59Z</time>
      </trkpt>
      <trkpt lat="48.39045" lon="-4.73677">
        <ele>38.242</ele>
        <time>2010-08-16T11:04:01Z</time>
      </trkpt>
      <trkpt lat="48.39091" lon="-4.73643">
        <ele>35.844</ele>
        <time>2010-08-16T11:04:06Z</time>
      </trkpt>
      <trkpt lat="48.39126" lon="-4.73612">
        <ele>35.422</ele>
        <time>2010-08-16T11:04:10Z</time>
      </trkpt>
      <trkpt lat="48.39216" lon="-4.73555">
        <ele>36.406</ele>
        <time>2010-08-16T11:04:21Z</time>
      </trkpt>
      <trkpt lat="48.39246" lon="-4.73533">
        <ele>38.95</ele>
        <time>2010-08-16T11:04:26Z</time>
      </trkpt>
      <trkpt lat="48.39269" lon="-4.73511">
        <ele>41.265</ele>
        <time>2010-08-16T11:04:31Z</time>
      </trkpt>
      <trkpt lat="48.39289" lon="-4.73493">
        <ele>42.842</ele>
        <time>2010-08-16T11:04:35Z</time>
      </trkpt>
      <trkpt lat="48.39304" lon="-4.73469">
        <ele>43.942</ele>
        <time>2010-08-16T11:04:40Z</time>
      </trkpt>
      <trkpt lat="48.39316" lon="-4.73435">
        <ele>45.466</ele>
        <time>2010-08-16T11:04:46Z</time>
      </trkpt>
      <trkpt lat="48.39354" lon="-4.73324">
        <ele>45.134</ele>
        <time>2010-08-16T11:05:01Z</time>
      </trkpt>
      <trkpt lat="48.39356" lon="-4.73316">
        <ele>45.246</ele>
        <time>2010-08-16T11:05:02Z</time>
      </trkpt>
      <trkpt lat="48.39422" lon="-4.73126">
        <ele>44.14</ele>
        <time>2010-08-16T11:05:25Z</time>
      </trkpt>
      <trkpt lat="48.39432" lon="-4.73113">
        <ele>43.754</ele>
        <time>2010-08-16T11:05:27Z</time>
      </trkpt>
      <trkpt lat="48.39475" lon="-4.7308">
        <ele>42.408</ele>
        <time>2010-08-16T11:05:34Z</time>
      </trkpt>
      <trkpt lat="48.39544" lon="-4.73067">
        <ele>45.672</ele>
        <time>2010-08-16T11:05:45Z</time>
      </trkpt>
      <trkpt lat="48.39588" lon="-4.73057">
        <ele>47.357</ele>
        <time>2010-08-16T11:05:54Z</time>
      </trkpt>
      <trkpt lat="48.39676" lon="-4.73032">
        <ele>49.813</ele>
        <time>2010-08-16T11:06:12Z</time>
      </trkpt>
      <trkpt lat="48.39698" lon="-4.73019">
        <ele>50.496</ele>
        <time>2010-08-16T11:06:17Z</time>
      </trkpt>
      <trkpt lat="48.39769" lon="-4.72978">
        <ele>51.29</ele>
        <time>2010-08-16T11:06:31Z</time>
      </trkpt>
      <trkpt lat="48.39859" lon="-4.72914">
        <ele>52.915</ele>
        <time>2010-08-16T11:06:51Z</time>
      </trkpt>
      <trkpt lat="48.39957" lon="-4.72841">
        <ele>54.041</ele>
        <time>2010-08-16T11:07:11Z</time>
      </trkpt>
      <trkpt lat="48.40032" lon="-4.72793">
        <ele>57.05</ele>
        <time>2010-08-16T11:07:29Z</time>
      </trkpt>
      <trkpt lat="48.40069" lon="-4.7278">
        <ele>60.109</ele>
        <time>2010-08-16T11:07:42Z</time>
      </trkpt>
      <trkpt lat="48.40114" lon="-4.72767">
        <ele>63.515</ele>
        <time>2010-08-16T11:07:57Z</time>
      </trkpt>
      <trkpt lat="48.40166" lon="-4.72752">
        <ele>65.953</ele>
        <time>2010-08-16T11:08:16Z</time>
      </trkpt>
      <trkpt lat="48.40225" lon="-4.7275">
        <ele>65.866</ele>
        <time>2010-08-16T11:08:34Z</time>
      </trkpt>
      <trkpt lat="48.40299" lon="-4.72729">
        <ele>68.386</ele>
        <time>2010-08-16T11:08:55Z</time>
      </trkpt>
      <trkpt lat="48.40339" lon="-4.72717">
        <ele>70.451</ele>
        <time>2010-08-16T11:09:08Z</time>
      </trkpt>
      <trkpt lat="48.40348" lon="-4.72647">
        <ele>72.097</ele>
        <time>2010-08-16T11:09:21Z</time>
      </trkpt>
      <trkpt lat="48.40353" lon="-4.72556">
        <ele>75.136</ele>
        <time>2010-08-16T11:09:38Z</time>
      </trkpt>
      <trkpt lat="48.40349" lon="-4.72469">
        <ele>78.256</ele>
        <time>2010-08-16T11:09:54Z</time>
      </trkpt>
      <trkpt lat="48.4034" lon="-4.72392">
        <ele>80.703</ele>
        <time>2010-08-16T11:10:11Z</time>
      </trkpt>
      <trkpt lat="48.4034" lon="-4.72325">
        <ele>82.944</ele>
        <time>2010-08-16T11:10:27Z</time>
      </trkpt>
      <trkpt lat="48.4034" lon="-4.72322">
        <ele>82.902</ele>
        <time>2010-08-16T11:10:31Z</time>
      </trkpt>
      <trkpt lat="48.40324" lon="-4.72307">
        <ele>82.71</ele>
        <time>2010-08-16T11:10:34Z</time>
      </trkpt>
      <trkpt lat="48.40336" lon="-4.72309">
        <ele>83.027</ele>
        <time>2010-08-16T11:10:42Z</time>
      </trkpt>
      <trkpt lat="48.40336" lon="-4.72309">
        <ele>83.376</ele>
        <time>2010-08-16T11:10:56Z</time>
      </trkpt>
      <trkpt lat="48.40336" lon="-4.72309">
        <ele>83.656</ele>
        <time>2010-08-16T11:11:05Z</time>
      </trkpt>
    </trkseg>
  </trk>
</gpx>